createdAt,value
2018-09-17T00:22:52.430Z,15.65
2018-09-17T00:25:21.479Z,15.67
2018-09-17T00:27:50.042Z,15.68
2018-09-17T00:30:18.682Z,15.68
2018-09-17T00:32:47.166Z,15.66
2018-09-17T00:35:15.717Z,15.68
2018-09-17T00:37:44.274Z,15.68
2018-09-17T00:40:12.754Z,15.69
2018-09-17T00:42:41.454Z,15.68
2018-09-17T00:45:10.098Z,15.69
2018-09-17T00:47:38.814Z,15.68
2018-09-17T00:50:07.386Z,15.69
2018-09-17T00:52:36.001Z,15.70
2018-09-17T00:55:04.478Z,15.69
2018-09-17T00:57:33.077Z,15.68
2018-09-17T01:00:01.862Z,15.68
2018-09-17T01:02:30.342Z,15.68
2018-09-17T01:04:59.006Z,15.66
2018-09-17T01:07:27.581Z,15.66
2018-09-17T01:09:56.170Z,15.66
2018-09-17T01:12:24.766Z,15.66
2018-09-17T01:14:53.366Z,15.67
2018-09-17T01:17:21.968Z,15.69
2018-09-17T01:19:50.554Z,15.69
2018-09-17T01:22:19.338Z,15.69
2018-09-17T01:24:47.858Z,15.68
2018-09-17T01:27:16.676Z,15.69
2018-09-17T01:29:45.254Z,15.68
2018-09-17T01:32:13.867Z,15.66
2018-09-17T01:34:42.488Z,15.66
2018-09-17T01:37:11.026Z,15.61
2018-09-17T01:39:39.514Z,15.64
2018-09-17T01:42:08.034Z,15.64
2018-09-17T01:44:36.658Z,15.61
2018-09-17T01:47:05.754Z,15.61
2018-09-17T01:49:34.678Z,15.59
2018-09-17T01:52:03.199Z,15.56
2018-09-17T01:54:31.815Z,15.55
2018-09-17T01:57:00.286Z,15.52
2018-09-17T01:59:28.854Z,15.51
2018-09-17T02:01:57.366Z,15.21
2018-09-17T02:04:25.954Z,15.48
2018-09-17T02:06:54.606Z,15.18
2018-09-17T02:09:23.202Z,15.46
2018-09-17T02:11:51.829Z,15.46
2018-09-17T02:14:20.535Z,15.44
2018-09-17T02:16:49.154Z,15.45
2018-09-17T02:19:17.762Z,15.42
2018-09-17T02:21:46.528Z,15.39
2018-09-17T02:24:15.342Z,15.17
2018-09-17T02:26:43.962Z,15.36
2018-09-17T02:29:12.762Z,15.36
2018-09-17T02:31:41.366Z,15.35
2018-09-17T02:34:10.054Z,15.33
2018-09-17T02:36:38.602Z,15.32
2018-09-17T02:39:08.362Z,15.31
2018-09-17T02:41:36.840Z,15.29
2018-09-17T02:44:05.479Z,15.28
2018-09-17T02:46:34.063Z,15.26
2018-09-17T02:49:02.695Z,15.25
2018-09-17T02:51:31.346Z,15.24
2018-09-17T02:53:59.846Z,15.24
2018-09-17T02:56:28.722Z,15.22
2018-09-17T02:58:57.278Z,15.19
2018-09-17T03:01:25.874Z,15.18
2018-09-17T03:03:54.443Z,15.13
2018-09-17T03:06:23.050Z,15.14
2018-09-17T03:08:51.798Z,15.13
2018-09-17T03:11:20.381Z,15.09
2018-09-17T03:13:49.090Z,14.94
2018-09-17T03:16:17.611Z,15.05
2018-09-17T03:18:54.352Z,14.49
2018-09-17T03:21:23.041Z,15.03
2018-09-17T03:23:51.615Z,15.00
2018-09-17T03:26:20.758Z,15.00
2018-09-17T03:28:49.384Z,15.00
2018-09-17T03:31:18.234Z,14.97
2018-09-17T03:33:46.796Z,14.96
2018-09-17T03:36:15.517Z,14.95
2018-09-17T03:38:47.164Z,14.91
2018-09-17T03:41:16.830Z,14.90
2018-09-17T03:43:47.071Z,14.85
2018-09-17T03:46:15.884Z,14.84
2018-09-17T03:48:44.385Z,14.81
2018-09-17T03:51:13.710Z,14.84
2018-09-17T03:53:42.743Z,14.87
2018-09-17T03:56:11.387Z,14.91
2018-09-17T03:58:39.889Z,14.91
2018-09-17T04:01:08.486Z,14.90
2018-09-17T04:03:37.139Z,14.61
2018-09-17T04:06:05.701Z,14.92
2018-09-17T04:08:34.595Z,14.95
2018-09-17T04:11:03.180Z,14.94
2018-09-17T04:13:31.905Z,14.94
2018-09-17T04:16:00.386Z,14.93
2018-09-17T04:18:29.145Z,14.94
2018-09-17T04:20:58.230Z,14.93
2018-09-17T04:23:41.175Z,14.96
2018-09-17T04:26:11.097Z,14.94
2018-09-17T04:28:40.169Z,14.96
2018-09-17T04:31:08.742Z,14.96
2018-09-17T04:33:38.837Z,14.94
2018-09-17T04:36:07.801Z,14.94
2018-09-17T04:38:36.474Z,14.95
2018-09-17T04:41:05.362Z,14.93
2018-09-17T04:43:33.950Z,14.95
2018-09-17T04:46:02.630Z,14.94
2018-09-17T04:48:31.414Z,14.94
2018-09-17T04:51:00.575Z,14.95
2018-09-17T04:56:04.193Z,14.91
2018-09-17T04:58:32.783Z,14.91
2018-09-17T05:01:01.310Z,14.90
2018-09-17T05:03:29.886Z,14.86
2018-09-17T05:05:58.420Z,14.85
2018-09-17T05:08:26.962Z,14.80
2018-09-17T05:10:55.637Z,14.83
2018-09-17T05:13:24.225Z,14.85
2018-09-17T05:15:52.794Z,14.85
2018-09-17T05:18:21.358Z,14.87
2018-09-17T05:20:49.994Z,14.85
2018-09-17T05:23:18.555Z,14.89
2018-09-17T05:25:47.126Z,14.87
2018-09-17T05:28:17.830Z,14.87
2018-09-17T05:30:46.422Z,14.88
2018-09-17T05:33:14.994Z,14.88
2018-09-17T05:35:44.637Z,14.89
2018-09-17T05:38:13.282Z,14.74
2018-09-17T05:40:41.887Z,14.90
2018-09-17T05:43:12.852Z,14.64
2018-09-17T05:45:41.412Z,14.89
2018-09-17T05:48:10.838Z,14.88
2018-09-17T05:50:39.303Z,14.86
2018-09-17T05:53:07.993Z,14.85
2018-09-17T05:55:36.631Z,14.87
2018-09-17T05:58:05.347Z,14.87
2018-09-17T06:00:34.004Z,14.92
2018-09-17T06:03:02.647Z,14.94
2018-09-17T06:05:31.487Z,14.98
2018-09-17T06:08:00.929Z,14.96
2018-09-17T06:10:30.162Z,14.97
2018-09-17T06:12:58.802Z,14.96
2018-09-17T06:15:27.551Z,14.37
2018-09-17T06:17:56.087Z,14.94
2018-09-17T06:20:24.624Z,14.93
2018-09-17T06:22:54.324Z,14.91
2018-09-17T06:25:23.314Z,14.77
2018-09-17T06:27:51.967Z,14.64
2018-09-17T06:30:20.687Z,14.61
2018-09-17T06:32:49.177Z,14.53
2018-09-17T06:35:17.686Z,14.51
2018-09-17T06:37:46.678Z,14.23
2018-09-17T06:40:15.244Z,14.45
2018-09-17T06:42:45.241Z,14.44
2018-09-17T06:45:13.881Z,14.45
2018-09-17T06:47:42.812Z,14.45
2018-09-17T06:50:11.614Z,14.47
2018-09-17T06:52:40.730Z,14.52
2018-09-17T06:55:09.337Z,14.49
2018-09-17T06:57:39.753Z,14.52
2018-09-17T07:00:08.422Z,14.58
2018-09-17T07:02:37.107Z,14.63
2018-09-17T07:05:06.106Z,14.62
2018-09-17T07:07:34.730Z,14.72
2018-09-17T07:10:03.646Z,14.76
2018-09-17T07:12:32.137Z,14.87
2018-09-17T07:15:01.108Z,14.92
2018-09-17T07:17:29.630Z,14.98
2018-09-17T07:19:58.286Z,14.41
2018-09-17T07:22:28.803Z,15.11
2018-09-17T07:24:57.424Z,15.16
2018-09-17T07:27:26.019Z,15.16
2018-09-17T07:29:56.143Z,15.22
2018-09-17T07:32:24.778Z,15.26
2018-09-17T07:34:53.394Z,15.29
2018-09-17T07:37:21.958Z,15.28
2018-09-17T07:39:50.458Z,15.36
2018-09-17T07:42:19.138Z,15.26
2018-09-17T07:44:47.646Z,15.43
2018-09-17T07:47:16.409Z,15.16
2018-09-17T07:49:44.974Z,15.59
2018-09-17T07:52:15.024Z,15.66
2018-09-17T07:54:43.574Z,15.72
2018-09-17T07:57:12.110Z,15.75
2018-09-17T07:59:40.810Z,15.72
2018-09-17T08:02:09.273Z,15.79
2018-09-17T08:04:38.658Z,15.83
2018-09-17T08:07:07.327Z,15.79
2018-09-17T08:09:35.978Z,15.82
2018-09-17T08:12:04.564Z,15.88
2018-09-17T08:14:37.849Z,15.93
2018-09-17T08:17:06.567Z,15.94
2018-09-17T08:19:35.432Z,15.69
2018-09-17T08:22:05.091Z,15.96
2018-09-17T08:24:34.400Z,15.68
2018-09-17T08:27:02.885Z,15.96
2018-09-17T08:29:32.302Z,16.03
2018-09-17T08:32:00.804Z,15.98
2018-09-17T08:34:29.796Z,16.04
2018-09-17T08:36:58.298Z,16.06
2018-09-17T08:39:27.438Z,15.99
2018-09-17T08:41:55.962Z,16.11
2018-09-17T08:44:24.599Z,16.16
2018-09-17T08:46:53.222Z,16.17
2018-09-17T08:49:21.805Z,16.26
2018-09-17T08:51:50.330Z,16.33
2018-09-17T08:54:18.868Z,16.21
2018-09-17T08:56:52.797Z,16.14
2018-09-17T08:59:26.398Z,16.21
2018-09-17T09:01:59.990Z,16.20
2018-09-17T09:04:33.930Z,16.26
2018-09-17T09:07:07.350Z,16.28
2018-09-17T09:09:36.702Z,15.85
2018-09-17T09:12:10.510Z,16.35
2018-09-17T09:14:40.298Z,16.30
2018-09-17T09:17:10.639Z,16.39
2018-09-17T09:19:39.851Z,16.32
2018-09-17T09:22:08.610Z,16.36
2018-09-17T09:24:37.109Z,16.45
2018-09-17T09:27:05.845Z,16.45
2018-09-17T09:29:34.350Z,16.43
2018-09-17T09:34:37.466Z,16.59
2018-09-17T09:37:06.290Z,16.74
2018-09-17T09:39:34.934Z,16.56
2018-09-17T09:42:03.727Z,16.86
2018-09-17T09:44:32.246Z,16.81
2018-09-17T09:47:00.729Z,16.81
2018-09-17T09:49:29.302Z,16.69
2018-09-17T09:51:57.758Z,16.68
2018-09-17T09:54:26.625Z,16.68
2018-09-17T09:56:55.118Z,16.70
2018-09-17T09:59:24.047Z,16.67
2018-09-17T10:01:58.764Z,16.67
2018-09-17T10:04:27.365Z,16.57
2018-09-17T10:06:55.953Z,16.70
2018-09-17T10:09:29.714Z,16.80
2018-09-17T10:12:03.730Z,16.92
2018-09-17T10:14:37.586Z,16.99
2018-09-17T10:17:11.434Z,17.13
2018-09-17T10:19:45.172Z,17.27
2018-09-17T10:22:13.631Z,17.12
2018-09-17T10:24:42.334Z,17.00
2018-09-17T10:27:10.803Z,17.04
2018-09-17T10:29:39.620Z,17.09
2018-09-17T10:32:08.426Z,17.05
2018-09-17T10:34:37.052Z,17.08
2018-09-17T10:37:05.994Z,17.21
2018-09-17T10:39:34.574Z,17.43
2018-09-17T10:42:04.834Z,17.48
2018-09-17T10:44:33.374Z,17.42
2018-09-17T10:47:02.591Z,17.50
2018-09-17T10:49:31.054Z,17.79
2018-09-17T10:52:00.218Z,17.79
2018-09-17T10:54:28.738Z,17.68
2018-09-17T10:57:01.426Z,17.60
2018-09-17T10:59:30.034Z,17.50
2018-09-17T11:01:59.562Z,17.47
2018-09-17T11:04:28.185Z,17.54
2018-09-17T11:06:57.566Z,17.54
2018-09-17T11:09:26.070Z,17.50
2018-09-17T11:11:54.934Z,17.51
2018-09-17T11:14:24.429Z,17.45
2018-09-17T11:16:53.562Z,17.51
2018-09-17T11:19:24.203Z,17.54
2018-09-17T11:21:52.933Z,17.62
2018-09-17T11:24:21.601Z,17.56
2018-09-17T11:26:51.082Z,17.50
2018-09-17T11:29:26.562Z,17.60
2018-09-17T11:31:56.126Z,17.58
2018-09-17T11:34:25.007Z,17.66
2018-09-17T11:36:53.578Z,17.72
2018-09-17T11:39:22.130Z,17.76
2018-09-17T11:41:51.571Z,17.63
2018-09-17T11:44:20.167Z,17.63
2018-09-17T11:46:49.227Z,17.66
2018-09-17T11:49:17.751Z,17.64
2018-09-17T11:51:46.568Z,17.71
2018-09-17T11:54:16.898Z,17.62
2018-09-17T11:56:45.826Z,17.19
2018-09-17T11:59:14.306Z,17.66
2018-09-17T12:01:48.201Z,17.86
2018-09-17T12:04:21.730Z,17.97
2018-09-17T12:07:59.166Z,17.90
2018-09-17T12:10:31.226Z,17.86
2018-09-17T12:13:01.418Z,17.88
2018-09-17T12:15:30.194Z,17.89
2018-09-17T12:18:01.216Z,17.96
2018-09-17T12:20:29.800Z,17.97
2018-09-17T12:23:00.396Z,18.06
2018-09-17T12:25:29.090Z,18.04
2018-09-17T12:28:00.685Z,18.00
2018-09-17T12:30:29.348Z,18.02
2018-09-17T12:32:57.901Z,17.99
2018-09-17T12:35:27.743Z,17.89
2018-09-17T12:37:56.633Z,17.83
2018-09-17T12:40:26.226Z,17.86
2018-09-17T12:42:55.288Z,17.79
2018-09-17T12:45:25.626Z,17.79
2018-09-17T12:47:54.742Z,17.83
2018-09-17T12:50:25.938Z,17.92
2018-09-17T12:52:54.404Z,18.02
2018-09-17T12:55:23.141Z,18.14
2018-09-17T12:57:51.751Z,18.20
2018-09-17T13:00:20.217Z,18.23
2018-09-17T13:02:49.073Z,18.14
2018-09-17T13:05:17.570Z,18.01
2018-09-17T13:07:46.416Z,17.95
2018-09-17T13:12:39.207Z,17.94
2018-09-17T13:15:08.346Z,17.99
2018-09-17T13:17:37.135Z,18.02
2018-09-17T13:20:06.389Z,17.93
2018-09-17T13:22:34.882Z,18.02
2018-09-17T13:25:03.670Z,18.01
2018-09-17T13:27:32.342Z,17.98
2018-09-17T13:30:00.870Z,17.88
2018-09-17T13:32:29.522Z,17.80
2018-09-17T13:34:58.582Z,18.05
2018-09-17T13:37:27.173Z,18.07
2018-09-17T13:39:55.706Z,17.93
2018-09-17T13:42:24.569Z,17.94
2018-09-17T13:44:53.054Z,18.01
2018-09-17T13:47:21.806Z,18.07
2018-09-17T13:49:51.206Z,18.14
2018-09-17T13:52:19.772Z,18.18
2018-09-17T13:54:48.479Z,18.16
2018-09-17T13:57:17.113Z,18.22
2018-09-17T13:59:45.599Z,18.31
2018-09-17T14:02:14.176Z,18.45
2018-09-17T14:04:43.030Z,18.21
2018-09-17T14:07:11.584Z,18.49
2018-09-17T14:09:40.304Z,18.45
2018-09-17T14:12:08.794Z,18.36
2018-09-17T14:14:37.514Z,18.33
2018-09-17T14:17:06.266Z,18.27
2018-09-17T14:19:34.774Z,18.31
2018-09-17T14:22:03.706Z,18.32
2018-09-17T14:24:32.166Z,18.38
2018-09-17T14:27:01.166Z,18.28
2018-09-17T14:29:29.723Z,18.16
2018-09-17T14:32:03.580Z,18.17
2018-09-17T14:34:32.086Z,18.16
2018-09-17T14:37:00.898Z,18.22
2018-09-17T14:39:29.433Z,18.24
2018-09-17T14:41:58.660Z,18.24
2018-09-17T14:44:27.135Z,18.12
2018-09-17T14:46:55.794Z,18.11
2018-09-17T14:49:24.326Z,17.88
2018-09-17T14:51:52.905Z,17.94
2018-09-17T14:54:24.249Z,17.32
2018-09-17T14:57:06.664Z,17.78
2018-09-17T14:59:38.018Z,17.75
2018-09-17T15:02:07.524Z,17.69
2018-09-17T15:04:36.796Z,17.67
2018-09-17T15:07:09.286Z,17.65
2018-09-17T15:09:37.908Z,17.49
2018-09-17T15:12:07.948Z,16.90
2018-09-17T15:14:39.800Z,17.36
2018-09-17T15:17:09.391Z,17.30
2018-09-17T15:19:41.478Z,17.24
2018-09-17T15:22:16.850Z,17.17
2018-09-17T15:24:45.894Z,17.14
2018-09-17T15:27:19.412Z,17.14
2018-09-17T15:29:51.695Z,17.08
2018-09-17T15:32:21.738Z,17.04
2018-09-17T15:34:52.259Z,16.98
2018-09-17T15:37:24.921Z,16.89
2018-09-17T15:39:54.195Z,16.84
2018-09-17T15:42:25.776Z,16.79
2018-09-17T15:44:56.731Z,16.78
2018-09-17T15:47:29.785Z,16.77
2018-09-17T15:50:00.090Z,16.72
2018-09-17T15:52:31.098Z,16.71
2018-09-17T15:55:03.212Z,16.70
2018-09-17T15:57:36.308Z,16.70
2018-09-17T16:00:08.110Z,16.71
2018-09-17T16:02:37.818Z,16.67
2018-09-17T16:05:10.619Z,16.66
2018-09-17T16:07:40.080Z,16.65
2018-09-17T16:10:10.283Z,16.61
2018-09-17T16:12:39.622Z,16.58
2018-09-17T16:15:08.261Z,16.55
2018-09-17T16:17:36.863Z,16.51
2018-09-17T16:20:08.420Z,16.42
2018-09-17T16:22:38.800Z,16.43
2018-09-17T16:25:10.426Z,16.16
2018-09-17T16:27:41.004Z,16.27
2018-09-17T16:30:13.980Z,16.32
2018-09-17T16:32:51.793Z,16.27
2018-09-17T16:35:23.150Z,16.25
2018-09-17T16:37:55.446Z,16.24
2018-09-17T16:40:26.940Z,16.19
2018-09-17T16:42:58.010Z,16.13
2018-09-17T16:45:33.161Z,16.08
2018-09-17T16:48:07.186Z,16.02
2018-09-17T16:50:53.547Z,15.98
2018-09-17T16:53:23.309Z,15.94
2018-09-17T16:55:53.988Z,15.89
2018-09-17T16:58:24.756Z,15.83
2018-09-17T17:00:56.312Z,15.79
2018-09-17T17:03:25.500Z,15.76
2018-09-17T17:05:56.742Z,15.73
2018-09-17T17:08:31.311Z,15.71
2018-09-17T17:11:02.848Z,15.64
2018-09-17T17:13:33.743Z,15.59
2018-09-17T17:16:04.310Z,15.55
2018-09-17T17:18:35.333Z,15.52
2018-09-17T17:21:09.017Z,15.48
2018-09-17T17:23:40.300Z,15.42
2018-09-17T17:26:10.750Z,15.36
2018-09-17T17:28:41.599Z,15.32
2018-09-17T17:31:11.118Z,15.30
2018-09-17T17:33:39.939Z,15.26
2018-09-17T17:36:09.414Z,15.24
2018-09-17T17:38:47.228Z,15.22
2018-09-17T17:41:20.415Z,15.17
2018-09-17T17:46:29.156Z,15.09
2018-09-17T17:49:00.787Z,15.06
2018-09-17T17:51:30.686Z,15.04
2018-09-17T17:54:02.246Z,15.02
2018-09-17T17:56:30.958Z,15.00
2018-09-17T17:58:59.539Z,15.00
2018-09-17T18:01:28.302Z,14.97
2018-09-17T18:03:56.947Z,14.96
2018-09-17T18:06:26.572Z,14.94
2018-09-17T18:08:56.239Z,14.94
2018-09-17T18:11:24.822Z,14.92
2018-09-17T18:13:55.560Z,14.93
2018-09-17T18:16:29.791Z,14.94
2018-09-17T18:18:59.905Z,14.95
2018-09-17T18:21:28.658Z,14.97
2018-09-17T18:26:34.154Z,15.00
2018-09-17T18:29:05.247Z,15.02
2018-09-17T18:31:33.738Z,15.00
2018-09-17T18:34:02.227Z,15.01
2018-09-17T18:36:33.189Z,14.98
2018-09-17T18:39:02.395Z,15.01
2018-09-17T18:41:31.138Z,15.03
2018-09-17T18:43:59.750Z,15.03
2018-09-17T18:46:28.771Z,14.76
2018-09-17T18:48:57.267Z,15.03
2018-09-17T18:51:30.589Z,15.04
2018-09-17T18:53:59.564Z,15.05
2018-09-17T18:56:28.389Z,15.05
2018-09-17T18:58:57.082Z,15.07
2018-09-17T19:01:25.591Z,15.08
2018-09-17T19:03:54.180Z,15.08
2018-09-17T19:06:22.895Z,15.09
2018-09-17T19:08:51.494Z,15.10
2018-09-17T19:11:20.197Z,14.63
2018-09-17T19:13:53.827Z,15.13
2018-09-17T19:16:27.466Z,15.14
2018-09-17T19:18:56.310Z,15.13
2018-09-17T19:21:29.196Z,15.15
2018-09-17T19:24:01.880Z,15.13
2018-09-17T19:26:30.762Z,15.15
2018-09-17T19:29:04.793Z,15.17
2018-09-17T19:31:33.487Z,15.15
2018-09-17T19:34:02.129Z,15.15
2018-09-17T19:36:30.753Z,15.15
2018-09-17T19:39:04.590Z,15.14
2018-09-17T19:41:33.233Z,15.11
2018-09-17T19:44:02.733Z,15.10
2018-09-17T19:46:31.299Z,15.07
2018-09-17T19:49:00.040Z,15.02
2018-09-17T19:51:33.918Z,14.99
2018-09-17T19:54:02.432Z,14.98
2018-09-17T19:56:30.930Z,14.96
2018-09-17T20:00:07.477Z,14.94
2018-09-17T20:02:36.069Z,14.89
2018-09-17T20:05:10.809Z,14.86
2018-09-17T20:07:39.593Z,14.84
2018-09-17T20:10:08.307Z,14.82
2018-09-17T20:12:36.965Z,14.79
2018-09-17T20:15:06.508Z,14.77
2018-09-17T20:17:35.483Z,14.74
2018-09-17T20:20:04.219Z,14.72
2018-09-17T20:22:32.873Z,14.71
2018-09-17T20:25:01.414Z,14.71
2018-09-17T20:27:29.958Z,14.68
2018-09-17T20:29:58.722Z,14.63
2018-09-17T20:32:27.342Z,14.62
2018-09-17T20:34:56.204Z,14.60
2018-09-17T20:37:24.738Z,14.58
2018-09-17T20:39:53.350Z,14.55
2018-09-17T20:42:21.910Z,14.57
2018-09-17T20:44:50.524Z,14.54
2018-09-17T20:47:19.074Z,14.19
2018-09-17T20:49:47.653Z,14.50
2018-09-17T20:52:16.442Z,14.47
2018-09-17T20:54:44.962Z,14.48
2018-09-17T20:57:13.545Z,14.43
2018-09-17T20:59:42.185Z,14.44
2018-09-17T21:02:11.359Z,14.43
2018-09-17T21:04:39.930Z,14.42
2018-09-17T21:07:08.399Z,14.41
2018-09-17T21:09:37.087Z,14.23
2018-09-17T21:12:05.760Z,14.40
2018-09-17T21:14:35.158Z,14.39
2018-09-17T21:17:03.801Z,14.41
2018-09-17T21:19:32.862Z,14.41
2018-09-17T21:22:01.317Z,14.39
2018-09-17T21:24:29.873Z,14.44
2018-09-17T21:26:58.423Z,14.47
2018-09-17T21:29:27.159Z,14.51
2018-09-17T21:31:55.708Z,14.55
2018-09-17T21:34:24.291Z,14.57
2018-09-17T21:36:53.517Z,14.62
2018-09-17T21:39:21.926Z,14.64
2018-09-17T21:41:50.612Z,14.64
2018-09-17T21:44:19.237Z,14.66
2018-09-17T21:46:48.000Z,14.67
2018-09-17T21:49:16.634Z,14.70
2018-09-17T21:51:45.440Z,14.73
2018-09-17T21:54:13.955Z,14.75
2018-09-17T21:56:42.500Z,14.77
2018-09-17T21:59:11.963Z,14.79
2018-09-17T22:01:40.460Z,14.79
2018-09-17T22:04:09.426Z,14.79
2018-09-17T22:06:37.895Z,14.81
2018-09-17T22:09:08.086Z,14.84
2018-09-17T22:11:36.612Z,14.85
2018-09-17T22:14:05.552Z,14.88
2018-09-17T22:16:34.296Z,14.90
2018-09-17T22:19:02.850Z,14.93
2018-09-17T22:21:31.355Z,14.98
2018-09-17T22:23:59.822Z,15.02
2018-09-17T22:26:28.935Z,15.08
2018-09-17T22:28:57.459Z,15.12
2018-09-17T22:31:26.260Z,15.19
2018-09-17T22:33:54.858Z,15.25
2018-09-17T22:36:23.499Z,15.30
2018-09-17T22:38:52.042Z,15.32
2018-09-17T22:41:20.580Z,15.37
2018-09-17T22:43:49.153Z,15.42
2018-09-17T22:46:17.626Z,15.46
2018-09-17T22:48:46.511Z,15.10
2018-09-17T22:51:14.989Z,15.50
2018-09-17T22:53:43.769Z,15.51
2018-09-17T22:56:12.403Z,15.54
2018-09-17T22:58:41.120Z,15.55
2018-09-17T23:01:09.622Z,15.58
2018-09-17T23:03:38.150Z,15.61
2018-09-17T23:06:06.642Z,15.64
2018-09-17T23:08:35.169Z,15.64
2018-09-17T23:11:03.941Z,15.66
2018-09-17T23:13:32.662Z,15.66
2018-09-17T23:16:01.359Z,15.20
2018-09-17T23:18:29.955Z,15.69
2018-09-17T23:20:58.667Z,15.72
2018-09-17T23:23:27.286Z,15.78
2018-09-17T23:25:55.960Z,15.80
2018-09-17T23:28:24.451Z,15.85
2018-09-17T23:30:53.034Z,15.89
2018-09-17T23:33:21.850Z,15.61
2018-09-17T23:35:50.298Z,15.97
2018-09-17T23:38:18.820Z,15.99
2018-09-17T23:40:47.494Z,16.03
2018-09-17T23:43:16.062Z,16.05
2018-09-17T23:45:44.625Z,16.08
2018-09-17T23:48:13.173Z,16.10
2018-09-17T23:50:42.009Z,16.12
2018-09-17T23:53:10.564Z,16.13
2018-09-17T23:55:39.434Z,16.15
2018-09-17T23:58:08.040Z,16.16
